createdAt,value
2022-08-12T00:00:17.577Z,95.86
2022-08-12T00:03:21.963Z,96.17
2022-08-12T00:06:26.607Z,95.48
2022-08-12T00:09:31.478Z,95.08
2022-08-12T00:12:37.433Z,94.87
2022-08-12T00:15:41.870Z,94.57
2022-08-12T00:18:46.353Z,94.65
2022-08-12T00:21:51.017Z,95.91
2022-08-12T00:24:54.981Z,96.21
2022-08-12T00:27:59.159Z,96.86
2022-08-12T00:31:03.628Z,97.55
2022-08-12T00:34:07.719Z,96.02
2022-08-12T00:37:14.252Z,97.36
2022-08-12T00:40:18.693Z,97.67
2022-08-12T00:43:06.913Z,98.18
2022-08-12T00:46:11.530Z,99.48
2022-08-12T00:48:58.244Z,100.00
2022-08-12T00:52:04.458Z,98.96
2022-08-12T00:54:57.290Z,99.99
2022-08-12T00:57:49.237Z,100.00
2022-08-12T01:00:35.479Z,100.00
2022-08-12T01:03:21.879Z,100.00
2022-08-12T01:06:27.010Z,99.24
2022-08-12T01:09:33.318Z,100.00
2022-08-12T01:12:19.834Z,100.00
2022-08-12T01:15:06.230Z,100.00
2022-08-12T01:17:51.446Z,100.00
2022-08-12T01:20:49.932Z,100.00
2022-08-12T01:23:46.961Z,100.00
2022-08-12T01:26:32.811Z,100.00
2022-08-12T01:29:26.127Z,100.00
2022-08-12T01:32:14.985Z,100.00
2022-08-12T01:35:03.338Z,100.00
2022-08-12T01:38:01.712Z,100.00
2022-08-12T01:40:48.616Z,100.00
2022-08-12T01:43:34.933Z,100.00
2022-08-12T01:46:38.878Z,100.00
2022-08-12T01:49:33.657Z,100.00
2022-08-12T01:52:37.055Z,100.00
2022-08-12T01:55:26.745Z,100.00
2022-08-12T01:58:53.219Z,100.00
2022-08-12T02:01:40.021Z,100.00
2022-08-12T02:05:18.223Z,100.00
2022-08-12T02:09:05.229Z,100.00
2022-08-12T02:12:27.730Z,100.00
2022-08-12T02:15:24.914Z,100.00
2022-08-12T02:18:24.794Z,100.00
2022-08-12T02:21:26.641Z,100.00
2022-08-12T02:24:20.232Z,100.00
2022-08-12T02:27:08.801Z,100.00
2022-08-12T02:29:54.459Z,100.00
2022-08-12T02:32:44.052Z,100.00
2022-08-12T02:35:33.799Z,100.00
2022-08-12T02:38:21.618Z,100.00
2022-08-12T02:41:11.393Z,100.00
2022-08-12T02:44:04.097Z,100.00
2022-08-12T02:46:53.950Z,100.00
2022-08-12T02:49:46.474Z,100.00
2022-08-12T02:52:33.898Z,100.00
2022-08-12T02:55:28.613Z,100.00
2022-08-12T02:58:20.530Z,100.00
2022-08-12T03:01:24.387Z,100.00
2022-08-12T03:04:15.396Z,100.00
2022-08-12T03:07:32.661Z,100.00
2022-08-12T03:10:40.064Z,100.00
2022-08-12T03:13:33.682Z,100.00
2022-08-12T03:16:20.950Z,100.00
2022-08-12T03:19:07.605Z,100.00
2022-08-12T03:22:09.420Z,100.00
2022-08-12T03:24:58.299Z,100.00
2022-08-12T03:27:49.845Z,100.00
2022-08-12T03:30:37.357Z,100.00
2022-08-12T03:33:23.997Z,100.00
2022-08-12T03:36:09.939Z,100.00
2022-08-12T03:39:15.603Z,100.00
2022-08-12T03:42:26.432Z,100.00
2022-08-12T03:45:52.213Z,100.00
2022-08-12T03:48:59.227Z,100.00
2022-08-12T03:52:05.238Z,100.00
2022-08-12T03:55:09.956Z,100.00
2022-08-12T03:58:14.431Z,100.00
2022-08-12T04:01:00.107Z,100.00
2022-08-12T04:03:52.273Z,100.00
2022-08-12T04:06:46.284Z,100.00
2022-08-12T04:09:32.541Z,100.00
2022-08-12T04:12:36.431Z,100.00
2022-08-12T04:15:25.780Z,100.00
2022-08-12T04:18:15.915Z,100.00
2022-08-12T04:21:02.830Z,100.00
2022-08-12T04:23:49.373Z,100.00
2022-08-12T04:26:39.415Z,100.00
2022-08-12T04:30:30.426Z,100.00
2022-08-12T04:32:32.046Z,100.00
2022-08-12T04:35:18.657Z,100.00
2022-08-12T04:38:05.231Z,100.00
2022-08-12T04:40:51.728Z,100.00
2022-08-12T04:43:53.892Z,100.00
2022-08-12T04:46:44.203Z,100.00
2022-08-12T04:49:32.049Z,100.00
2022-08-12T04:52:18.253Z,100.00
2022-08-12T04:55:04.190Z,100.00
2022-08-12T04:57:49.843Z,100.00
2022-08-12T05:00:38.032Z,100.00
2022-08-12T05:03:26.409Z,100.00
2022-08-12T05:06:11.953Z,100.00
2022-08-12T05:09:13.643Z,100.00
2022-08-12T05:11:59.279Z,100.00
2022-08-12T05:14:45.244Z,100.00
2022-08-12T05:17:30.948Z,100.00
2022-08-12T05:20:19.757Z,100.00
2022-08-12T05:23:12.635Z,100.00
2022-08-12T05:26:00.890Z,100.00
2022-08-12T05:28:46.497Z,100.00
2022-08-12T05:31:42.623Z,100.00
2022-08-12T05:34:34.434Z,99.47
2022-08-12T05:37:23.181Z,97.60
2022-08-12T05:40:11.437Z,90.03
2022-08-12T05:42:57.402Z,86.82
2022-08-12T05:45:44.955Z,85.89
2022-08-12T05:48:32.990Z,84.62
2022-08-12T05:51:18.770Z,83.63
2022-08-12T05:54:04.942Z,81.29
2022-08-12T05:56:51.613Z,81.09
2022-08-12T05:59:38.651Z,79.39
2022-08-12T06:02:24.046Z,79.06
2022-08-12T06:05:10.458Z,78.68
2022-08-12T06:08:02.056Z,77.95
2022-08-12T06:10:49.951Z,76.65
2022-08-12T06:13:54.137Z,75.82
2022-08-12T06:16:40.220Z,75.12
2022-08-12T06:19:25.937Z,74.88
2022-08-12T06:22:31.497Z,73.10
2022-08-12T06:25:21.654Z,72.24
2022-08-12T06:28:19.442Z,72.17
2022-08-12T06:35:25.025Z,71.10
2022-08-12T06:37:20.106Z,69.69
2022-08-12T06:40:08.041Z,69.44
2022-08-12T06:42:53.692Z,68.93
2022-08-12T06:45:45.124Z,67.72
2022-08-12T06:48:32.559Z,67.26
2022-08-12T06:51:20.571Z,67.17
2022-08-12T06:54:07.196Z,65.96
2022-08-12T06:58:05.549Z,66.06
2022-08-12T06:59:58.675Z,64.33
2022-08-12T07:02:44.554Z,63.64
2022-08-12T07:05:30.853Z,62.11
2022-08-12T07:08:16.893Z,61.34
2022-08-12T07:11:05.911Z,60.08
2022-08-12T07:14:11.534Z,58.51
2022-08-12T07:17:02.083Z,57.46
2022-08-12T07:19:48.718Z,57.15
2022-08-12T07:22:34.980Z,55.94
2022-08-12T07:25:37.864Z,54.42
2022-08-12T07:28:29.325Z,53.37
2022-08-12T07:31:17.453Z,53.42
2022-08-12T07:34:04.354Z,51.78
2022-08-12T07:36:49.800Z,52.10
2022-08-12T07:39:35.607Z,50.62
2022-08-12T07:42:21.166Z,50.81
2022-08-12T07:45:09.354Z,49.23
2022-08-12T07:47:55.221Z,49.62
2022-08-12T07:50:40.598Z,48.68
2022-08-12T07:53:25.882Z,47.95
2022-08-12T07:56:12.019Z,46.89
2022-08-12T07:59:01.043Z,46.51
2022-08-12T08:01:46.701Z,45.56
2022-08-12T08:04:50.505Z,44.55
2022-08-12T08:07:36.306Z,44.01
2022-08-12T08:10:21.705Z,44.16
2022-08-12T08:13:08.724Z,43.87
2022-08-12T08:16:04.071Z,42.42
2022-08-12T08:18:49.720Z,41.41
2022-08-12T08:21:35.422Z,42.84
2022-08-12T08:24:25.800Z,39.79
2022-08-12T08:27:12.255Z,38.05
2022-08-12T08:29:58.465Z,38.50
2022-08-12T08:32:43.861Z,37.86
2022-08-12T08:35:43.157Z,37.48
2022-08-12T08:38:35.416Z,36.72
2022-08-12T08:42:17.368Z,35.72
2022-08-12T08:44:57.926Z,35.26
2022-08-12T08:47:46.250Z,35.15
2022-08-12T08:50:32.174Z,33.95
2022-08-12T08:53:17.949Z,33.86
2022-08-12T08:56:05.407Z,33.18
2022-08-12T08:58:51.386Z,32.54
2022-08-12T09:01:38.651Z,32.08
2022-08-12T09:07:51.708Z,30.45
2022-08-12T09:10:35.616Z,30.66
2022-08-12T09:14:11.253Z,30.27
2022-08-12T09:16:41.570Z,29.62
2022-08-12T09:19:29.308Z,29.38
2022-08-12T09:22:18.547Z,28.87
2022-08-12T09:25:07.232Z,27.36
2022-08-12T09:28:03.384Z,26.54
2022-08-12T09:30:51.292Z,26.71
2022-08-12T09:34:27.493Z,26.85
2022-08-12T09:36:58.184Z,27.53
2022-08-12T09:40:02.431Z,26.22
2022-08-12T09:43:21.885Z,25.48
2022-08-12T09:46:22.131Z,24.88
2022-08-12T09:49:13.600Z,25.06
2022-08-12T09:52:02.305Z,23.23
2022-08-12T09:54:48.471Z,23.73
2022-08-12T09:58:46.932Z,24.33
2022-08-12T10:00:52.258Z,23.28
2022-08-12T10:03:55.476Z,22.72
2022-08-12T10:06:54.857Z,22.27
2022-08-12T10:09:58.542Z,22.47
2022-08-12T10:13:07.122Z,22.16
2022-08-12T10:16:02.574Z,22.18
2022-08-12T10:18:56.990Z,22.18
2022-08-12T10:21:44.042Z,20.96
2022-08-12T10:24:29.407Z,22.57
2022-08-12T10:27:39.495Z,23.48
2022-08-12T10:30:44.191Z,21.70
2022-08-12T10:33:54.974Z,21.43
2022-08-12T10:36:52.012Z,21.72
2022-08-12T10:40:06.923Z,21.84
2022-08-12T10:43:03.705Z,21.81
2022-08-12T10:45:54.103Z,21.55
2022-08-12T10:49:05.755Z,20.22
2022-08-12T10:52:33.453Z,20.25
2022-08-12T10:55:01.942Z,21.40
2022-08-12T10:58:15.268Z,21.06
2022-08-12T11:03:02.265Z,20.42
2022-08-12T11:04:23.265Z,19.33
2022-08-12T11:08:36.997Z,20.01
2022-08-12T11:10:16.087Z,21.04
2022-08-12T11:13:09.345Z,19.76
2022-08-12T11:16:04.179Z,19.67
2022-08-12T11:19:02.578Z,18.95
2022-08-12T11:21:57.989Z,18.71
2022-08-12T11:24:51.057Z,18.65
2022-08-12T11:27:39.334Z,19.21
2022-08-12T11:30:31.462Z,18.38
2022-08-12T11:33:24.017Z,18.71
2022-08-12T11:36:16.302Z,19.13
2022-08-12T11:39:04.377Z,19.31
2022-08-12T11:41:50.324Z,19.39
2022-08-12T11:44:42.966Z,20.61
2022-08-12T11:47:28.944Z,20.60
2022-08-12T11:50:19.275Z,19.68
2022-08-12T11:53:05.444Z,19.42
2022-08-12T11:56:11.271Z,19.95
2022-08-12T12:02:05.129Z,19.44
2022-08-12T12:04:52.461Z,17.88
2022-08-12T12:08:38.572Z,18.92
2022-08-12T12:10:45.177Z,18.79
2022-08-12T12:14:08.461Z,20.09
2022-08-12T12:16:40.065Z,20.86
2022-08-12T12:19:39.763Z,20.36
2022-08-12T12:22:31.196Z,20.00
2022-08-12T12:25:16.773Z,20.85
2022-08-12T12:28:06.408Z,20.50
2022-08-12T12:30:54.461Z,19.00
2022-08-12T12:33:57.349Z,19.99
2022-08-12T12:36:47.663Z,19.67
2022-08-12T12:39:55.233Z,18.94
2022-08-12T12:42:42.642Z,19.52
2022-08-12T12:45:46.486Z,18.08
2022-08-12T12:48:32.388Z,18.37
2022-08-12T12:51:49.208Z,18.30
2022-08-12T12:54:26.010Z,19.04
2022-08-12T12:57:14.781Z,17.49
2022-08-12T13:00:14.929Z,18.83
2022-08-12T13:03:00.581Z,20.24
2022-08-12T13:05:53.534Z,18.85
2022-08-12T13:08:39.693Z,19.42
2022-08-12T13:11:35.460Z,20.30
2022-08-12T13:14:29.571Z,19.70
2022-08-12T13:17:19.894Z,20.62
2022-08-12T13:20:06.046Z,20.54
2022-08-12T13:22:53.640Z,20.34
2022-08-12T13:25:42.795Z,19.34
2022-08-12T13:28:30.711Z,18.61
2022-08-12T13:31:16.395Z,19.80
2022-08-12T13:34:32.214Z,19.35
2022-08-12T13:37:10.160Z,20.69
2022-08-12T13:39:55.659Z,20.71
2022-08-12T13:42:41.274Z,20.38
2022-08-12T13:45:33.912Z,20.35
2022-08-12T13:48:19.891Z,20.80
2022-08-12T13:51:05.438Z,20.84
2022-08-12T13:53:57.788Z,20.01
2022-08-12T13:56:50.052Z,19.63
2022-08-12T13:59:48.727Z,19.29
2022-08-12T14:02:41.349Z,19.17
2022-08-12T14:05:38.395Z,20.79
2022-08-12T14:08:24.760Z,19.94
2022-08-12T14:11:13.148Z,19.83
2022-08-12T14:14:03.951Z,19.47
2022-08-12T14:16:58.239Z,19.96
2022-08-12T14:20:03.834Z,20.01
2022-08-12T14:22:49.497Z,19.65
2022-08-12T14:25:40.689Z,20.00
2022-08-12T14:28:28.568Z,20.33
2022-08-12T14:31:18.264Z,19.82
2022-08-12T14:34:04.966Z,19.57
2022-08-12T14:36:50.457Z,19.44
2022-08-12T14:39:35.849Z,20.22
2022-08-12T14:42:31.615Z,19.21
2022-08-12T14:45:17.319Z,20.46
2022-08-12T14:48:08.807Z,20.55
2022-08-12T14:52:39.703Z,18.74
2022-08-12T14:56:59.085Z,18.62
2022-08-12T14:58:00.831Z,19.26
2022-08-12T15:00:34.197Z,20.81
2022-08-12T15:03:52.504Z,21.03
2022-08-12T15:06:44.078Z,21.95
2022-08-12T15:09:37.764Z,20.30
2022-08-12T15:12:24.612Z,21.75
2022-08-12T15:15:11.312Z,21.15
2022-08-12T15:18:02.025Z,21.49
2022-08-12T15:20:47.842Z,22.93
2022-08-12T15:23:55.007Z,22.67
2022-08-12T15:26:42.362Z,21.53
2022-08-12T15:29:28.384Z,22.33
2022-08-12T15:32:16.216Z,21.83
2022-08-12T15:35:07.838Z,21.75
2022-08-12T15:38:10.280Z,23.89
2022-08-12T15:41:00.010Z,24.94
2022-08-12T15:44:17.026Z,25.46
2022-08-12T15:46:52.555Z,26.58
2022-08-12T15:49:54.579Z,26.82
2022-08-12T15:52:44.484Z,28.27
2022-08-12T15:55:35.161Z,27.96
2022-08-12T15:58:20.623Z,28.17
2022-08-12T16:01:11.678Z,28.26
2022-08-12T16:04:00.320Z,28.72
2022-08-12T16:07:06.178Z,29.08
2022-08-12T16:10:05.015Z,29.85
2022-08-12T16:12:57.182Z,29.91
2022-08-12T16:15:51.099Z,29.84
2022-08-12T16:18:48.844Z,30.86
2022-08-12T16:21:52.654Z,30.37
2022-08-12T16:24:44.513Z,31.23
2022-08-12T16:27:31.518Z,31.70
2022-08-12T16:30:32.746Z,31.85
2022-08-12T16:33:19.532Z,31.58
2022-08-12T16:36:11.429Z,32.19
2022-08-12T16:38:57.349Z,31.58
2022-08-12T16:41:43.752Z,31.65
2022-08-12T16:44:32.688Z,32.34
2022-08-12T16:47:20.627Z,33.06
2022-08-12T16:50:07.717Z,32.57
2022-08-12T16:52:56.250Z,33.03
2022-08-12T16:55:44.905Z,33.85
2022-08-12T16:58:36.364Z,33.47
2022-08-12T17:01:22.239Z,33.83
2022-08-12T17:04:09.050Z,34.03
2022-08-12T17:06:54.955Z,34.00
2022-08-12T17:09:42.260Z,34.27
2022-08-12T17:12:28.992Z,34.70
2022-08-12T17:15:21.309Z,35.01
2022-08-12T17:18:43.541Z,35.65
2022-08-12T17:21:41.327Z,35.17
2022-08-12T17:24:35.866Z,36.14
2022-08-12T17:27:30.919Z,35.37
2022-08-12T17:30:17.227Z,36.70
2022-08-12T17:33:07.050Z,36.54
2022-08-12T17:35:53.275Z,36.85
2022-08-12T17:38:38.803Z,37.31
2022-08-12T17:41:57.058Z,37.34
2022-08-12T17:44:31.383Z,37.93
2022-08-12T17:47:18.698Z,37.77
2022-08-12T17:50:17.340Z,38.17
2022-08-12T17:53:04.528Z,38.03
2022-08-12T17:55:51.292Z,39.00
2022-08-12T17:58:42.064Z,38.82
2022-08-12T18:01:37.189Z,39.33
2022-08-12T18:04:35.998Z,39.45
2022-08-12T18:07:23.399Z,39.55
2022-08-12T18:10:09.838Z,39.76
2022-08-12T18:12:55.517Z,40.69
2022-08-12T18:16:06.162Z,40.04
2022-08-12T18:18:48.984Z,40.93
2022-08-12T18:22:02.577Z,40.61
2022-08-12T18:24:40.857Z,41.73
2022-08-12T18:27:43.507Z,41.29
2022-08-12T18:30:35.830Z,41.78
2022-08-12T18:33:25.624Z,42.55
2022-08-12T18:36:12.963Z,42.38
2022-08-12T18:38:59.861Z,45.21
2022-08-12T18:41:47.079Z,47.67
2022-08-12T18:44:33.437Z,47.75
2022-08-12T18:47:20.728Z,49.38
2022-08-12T18:50:06.597Z,51.02
2022-08-12T18:52:56.915Z,52.41
2022-08-12T18:55:43.306Z,52.56
2022-08-12T18:58:59.245Z,52.31
2022-08-12T19:02:20.745Z,55.16
2022-08-12T19:05:08.173Z,53.57
2022-08-12T19:08:01.761Z,55.62
2022-08-12T19:10:50.438Z,53.48
2022-08-12T19:13:55.877Z,53.56
2022-08-12T19:16:43.862Z,54.27
2022-08-12T19:19:41.696Z,54.13
2022-08-12T19:22:28.924Z,53.12
2022-08-12T19:25:23.564Z,52.82
2022-08-12T19:28:35.532Z,56.07
2022-08-12T19:31:44.571Z,57.23
2022-08-12T19:38:04.208Z,54.65
2022-08-12T19:40:54.885Z,57.77
2022-08-12T19:44:00.432Z,58.30
2022-08-12T19:46:53.013Z,60.03
2022-08-12T19:49:55.159Z,60.12
2022-08-12T19:52:41.646Z,60.17
2022-08-12T19:55:28.163Z,61.01
2022-08-12T19:58:18.139Z,60.86
2022-08-12T20:01:11.097Z,62.20
2022-08-12T20:03:59.308Z,64.96
2022-08-12T20:06:51.525Z,64.39
2022-08-12T20:09:42.956Z,63.66
2022-08-12T20:12:53.834Z,62.77
2022-08-12T20:15:44.807Z,63.34
2022-08-12T20:18:53.463Z,62.65
2022-08-12T20:21:40.182Z,63.17
2022-08-12T20:24:31.518Z,61.96
2022-08-12T20:27:29.812Z,60.82
2022-08-12T20:30:37.183Z,62.03
2022-08-12T20:33:32.667Z,61.73
2022-08-12T20:36:42.458Z,61.76
2022-08-12T20:39:52.581Z,64.30
2022-08-12T20:42:34.583Z,66.82
2022-08-12T20:45:19.984Z,66.63
2022-08-12T20:48:10.298Z,67.38
2022-08-12T20:51:04.541Z,68.78
2022-08-12T20:53:57.443Z,68.70
2022-08-12T20:56:45.301Z,66.60
2022-08-12T20:59:31.896Z,67.24
2022-08-12T21:02:24.279Z,67.29
2022-08-12T21:06:13.046Z,67.58
2022-08-12T21:08:35.003Z,68.76
2022-08-12T21:11:22.660Z,68.31
2022-08-12T21:14:10.539Z,68.87
2022-08-12T21:16:57.002Z,69.49
2022-08-12T21:19:52.798Z,70.16
2022-08-12T21:22:40.308Z,70.75
2022-08-12T21:25:27.047Z,70.89
2022-08-12T21:28:31.637Z,71.73
2022-08-12T21:32:47.060Z,70.92
2022-08-12T21:34:24.288Z,72.56
2022-08-12T21:37:27.333Z,73.21
2022-08-12T21:40:14.969Z,71.40
2022-08-12T21:43:00.650Z,73.05
2022-08-12T21:46:00.401Z,74.99
2022-08-12T21:48:48.347Z,74.91
2022-08-12T21:51:50.003Z,77.16
2022-08-12T21:54:40.558Z,76.84
2022-08-12T21:57:26.200Z,76.17
2022-08-12T22:00:17.405Z,76.07
2022-08-12T22:03:55.005Z,75.11
2022-08-12T22:06:42.536Z,75.19
2022-08-12T22:09:30.315Z,76.50
2022-08-12T22:12:37.618Z,74.81
2022-08-12T22:15:23.542Z,74.40
2022-08-12T22:18:09.520Z,76.91
2022-08-12T22:20:55.323Z,76.72
2022-08-12T22:23:52.348Z,77.84
2022-08-12T22:26:47.855Z,78.61
2022-08-12T22:29:52.503Z,76.50
2022-08-12T22:32:50.493Z,77.20
2022-08-12T22:35:55.783Z,77.81
2022-08-12T22:38:46.643Z,79.93
2022-08-12T22:41:56.700Z,78.07
2022-08-12T22:45:00.798Z,79.04
2022-08-12T22:47:55.686Z,78.29
2022-08-12T22:50:41.722Z,78.04
2022-08-12T22:53:36.309Z,78.56
2022-08-12T22:56:30.813Z,80.68
2022-08-12T22:59:17.085Z,80.37
2022-08-12T23:02:08.260Z,79.98
2022-08-12T23:04:58.260Z,81.67
2022-08-12T23:07:58.868Z,84.45
2022-08-12T23:10:46.361Z,79.34
2022-08-12T23:13:55.262Z,77.32
2022-08-12T23:16:42.333Z,77.17
2022-08-12T23:19:38.324Z,79.65
2022-08-12T23:22:36.140Z,79.38
2022-08-12T23:25:22.553Z,75.23
2022-08-12T23:28:37.158Z,74.89
2022-08-12T23:31:30.438Z,78.49
2022-08-12T23:34:35.980Z,80.47
2022-08-12T23:37:46.762Z,79.22
2022-08-12T23:40:29.178Z,78.17
2022-08-12T23:43:17.579Z,78.46
2022-08-12T23:46:05.948Z,75.22
2022-08-12T23:48:53.897Z,77.56
2022-08-12T23:51:39.364Z,75.44
2022-08-12T23:54:39.176Z,74.66
2022-08-12T23:58:17.144Z,73.81
